Terminal Aerodrome Forecast
Issued by NWS

Home | Current Version | Previous Version | Text Only | Print | Product List | Glossary On
Versions: 1 2 3 4 5 6 7 8 9 10 11 12 13
000
FTUS44 KLZK 311700 RRA
TAFADF
TAF
KADF 311752Z 3118/0118 13007KT P6SM OVC100
     FM010000 13006KT P6SM BKN060 OVC100
     FM010600 15009KT P6SM SCT020 OVC060
     FM010900 18009G15KT 5SM -SHRA BKN017 BKN035 OVC050
      WS020/20045KT
     FM011200 19009G15KT 4SM SHRA BKN011 OVC018 WS020/20045KT=

USA.gov is the U.S. government's official web portal to all federal, state and local government web resources and services.